createdAt,value
2022-08-25T04:03:05.125Z,101327.13
2022-08-25T04:05:33.029Z,101325.97
2022-08-25T04:08:03.426Z,101331.03
2022-08-25T04:10:31.841Z,101330.94
2022-08-25T04:13:01.158Z,101337.06
2022-08-25T04:15:30.262Z,101339.94
2022-08-25T04:17:58.942Z,101329.59
2022-08-25T04:20:28.227Z,101342.84
2022-08-25T04:22:55.939Z,101339.63
2022-08-25T04:25:23.546Z,101337.47
2022-08-25T04:27:51.429Z,101336.25
2022-08-25T04:30:19.240Z,101328.81
2022-08-25T04:32:48.201Z,101329.72
2022-08-25T04:35:16.030Z,101331.81
2022-08-25T04:37:45.271Z,101322.94
2022-08-25T04:40:13.437Z,101323.03
2022-08-25T04:42:41.157Z,101322.44
2022-08-25T04:45:09.466Z,101328.59
2022-08-25T04:47:40.769Z,101325.09
2022-08-25T04:50:09.143Z,101317.91
2022-08-25T04:52:38.051Z,101324.09
2022-08-25T04:55:07.586Z,101318.25
2022-08-25T04:57:35.372Z,101323.34
2022-08-25T05:00:03.621Z,101326.19
2022-08-25T05:02:31.322Z,101321.16
2022-08-25T05:04:59.087Z,101324.44
2022-08-25T05:07:27.520Z,101326.97
2022-08-25T05:09:55.166Z,101332.75
2022-08-25T05:12:24.089Z,101328.66
2022-08-25T05:14:53.391Z,101328.13
2022-08-25T05:17:21.324Z,101322.28
2022-08-25T05:19:50.239Z,101326.78
2022-08-25T05:22:17.942Z,101326.44
2022-08-25T05:24:47.101Z,101328.91
2022-08-25T05:27:14.695Z,101334.59
2022-08-25T05:29:44.747Z,101334.81
2022-08-25T05:32:12.512Z,101328.06
2022-08-25T05:34:40.157Z,101330.53
2022-08-25T05:37:11.635Z,101331.97
2022-08-25T05:39:39.835Z,101328.50
2022-08-25T05:42:07.949Z,101320.31
2022-08-25T05:44:35.560Z,101318.72
2022-08-25T05:47:04.637Z,101320.47
2022-08-25T05:49:32.281Z,101319.72
2022-08-25T05:52:00.211Z,101323.78
2022-08-25T05:54:27.888Z,101317.25
2022-08-25T05:56:55.952Z,101310.66
2022-08-25T05:59:23.614Z,101313.91
2022-08-25T06:02:08.981Z,101310.34
2022-08-25T06:04:41.153Z,101309.44
2022-08-25T06:07:09.262Z,101315.56
2022-08-25T06:09:38.584Z,101312.41
2022-08-25T06:12:07.377Z,101304.72
2022-08-25T06:14:35.269Z,101305.88
2022-08-25T06:17:03.201Z,101299.84
2022-08-25T06:19:31.375Z,101299.22
2022-08-25T06:22:00.359Z,101299.53
2022-08-25T06:24:29.171Z,101310.31
2022-08-25T06:26:57.239Z,101305.88
2022-08-25T06:29:25.203Z,101300.44
2022-08-25T06:31:53.454Z,101313.69
2022-08-25T06:34:23.758Z,101315.94
2022-08-25T06:36:52.285Z,101314.53
2022-08-25T06:39:21.498Z,101317.41
2022-08-25T06:41:52.515Z,101310.28
2022-08-25T06:44:20.186Z,101308.34
2022-08-25T06:46:47.962Z,101311.91
2022-08-25T06:49:18.122Z,101309.25
2022-08-25T06:51:45.908Z,101300.81
2022-08-25T06:54:13.672Z,101292.41
2022-08-25T06:56:43.253Z,101291.69
2022-08-25T06:59:11.767Z,101292.00
2022-08-25T07:01:39.887Z,101293.22
2022-08-25T07:04:12.860Z,101293.53
2022-08-25T07:06:41.851Z,101294.09
2022-08-25T07:09:11.370Z,101288.34
2022-08-25T07:11:39.588Z,101299.66
2022-08-25T07:14:10.843Z,101286.84
2022-08-25T07:16:39.201Z,101289.59
2022-08-25T07:19:09.184Z,101282.81
2022-08-25T07:21:41.321Z,101280.13
2022-08-25T07:24:11.171Z,101280.69
2022-08-25T07:26:42.059Z,101289.56
2022-08-25T07:29:13.454Z,101284.13
2022-08-25T07:31:41.645Z,101290.22
2022-08-25T07:34:27.439Z,101280.28
2022-08-25T07:36:57.229Z,101282.56
2022-08-25T07:39:26.523Z,101286.22
2022-08-25T07:41:56.114Z,101295.94
2022-08-25T07:44:27.990Z,101294.84
2022-08-25T07:46:56.240Z,101294.84
2022-08-25T07:49:35.946Z,101301.44
2022-08-25T07:52:07.549Z,101296.78
2022-08-25T07:54:38.457Z,101305.09
2022-08-25T07:57:09.357Z,101295.97
2022-08-25T07:59:40.802Z,101300.97
2022-08-25T08:02:17.713Z,101303.25
2022-08-25T08:04:48.565Z,101297.47
2022-08-25T08:07:19.292Z,101297.22
2022-08-25T08:09:53.069Z,101293.88
2022-08-25T08:12:24.469Z,101295.00
2022-08-25T08:14:54.393Z,101293.34
2022-08-25T08:17:23.001Z,101288.34
2022-08-25T08:19:50.667Z,101287.53
2022-08-25T08:22:18.795Z,101287.56
2022-08-25T08:24:54.276Z,101281.75
2022-08-25T08:27:23.450Z,101276.75
2022-08-25T08:29:53.569Z,101277.03
2022-08-25T08:32:23.805Z,101276.44
2022-08-25T08:34:59.275Z,101275.06
2022-08-25T08:37:27.982Z,101270.63
2022-08-25T08:39:55.874Z,101276.16
2022-08-25T08:42:42.961Z,101273.38
2022-08-25T08:45:31.113Z,101271.69
2022-08-25T08:48:23.289Z,101260.31
2022-08-25T08:51:02.741Z,101260.56
2022-08-25T08:53:46.239Z,101250.59
2022-08-25T08:56:17.236Z,101247.28
2022-08-25T08:58:50.096Z,101250.88
2022-08-25T09:01:26.168Z,101251.09
2022-08-25T09:04:00.817Z,101254.72
2022-08-25T09:06:33.151Z,101250.28
2022-08-25T09:09:06.711Z,101241.63
2022-08-25T09:11:49.824Z,101242.97
2022-08-25T09:14:34.733Z,101240.16
2022-08-25T09:17:11.441Z,101241.59
2022-08-25T09:20:18.185Z,101239.34
2022-08-25T09:22:56.488Z,101231.38
2022-08-25T09:25:52.460Z,101224.03
2022-08-25T09:28:26.374Z,101227.59
2022-08-25T09:31:01.231Z,101223.81
2022-08-25T09:33:33.572Z,101227.16
2022-08-25T09:36:09.006Z,101228.50
2022-08-25T09:38:37.501Z,101223.75
2022-08-25T09:41:07.477Z,101216.06
2022-08-25T09:43:37.689Z,101220.44
2022-08-25T09:46:13.432Z,101208.88
2022-08-25T09:48:48.501Z,101214.38
2022-08-25T09:51:27.572Z,101206.97
2022-08-25T09:53:57.661Z,101201.19
2022-08-25T09:56:28.340Z,101203.09
2022-08-25T09:59:03.057Z,101203.09
2022-08-25T10:01:32.096Z,101199.66
2022-08-25T10:04:06.844Z,101200.13
2022-08-25T10:06:48.487Z,101207.38
2022-08-25T10:09:26.862Z,101198.25
2022-08-25T10:11:57.725Z,101198.28
2022-08-25T10:14:34.933Z,101197.44
2022-08-25T10:17:16.127Z,101186.50
2022-08-25T10:19:45.191Z,101180.63
2022-08-25T10:22:22.387Z,101180.88
2022-08-25T10:24:49.997Z,101172.78
2022-08-25T10:27:28.593Z,101168.81
2022-08-25T10:30:18.981Z,101167.00
2022-08-25T10:33:10.287Z,101162.63
2022-08-25T10:35:52.597Z,101154.94
2022-08-25T10:38:35.467Z,101150.00
2022-08-25T10:41:22.273Z,101142.50
2022-08-25T10:43:58.555Z,101141.31
2022-08-25T10:46:34.589Z,101127.19
2022-08-25T10:49:07.023Z,101124.31
2022-08-25T10:51:53.819Z,101124.81
2022-08-25T10:54:31.129Z,101117.09
2022-08-25T10:57:08.202Z,101121.47
2022-08-25T10:59:58.593Z,101118.28
2022-08-25T11:03:11.757Z,101117.66
2022-08-25T11:05:44.585Z,101112.28
2022-08-25T11:08:18.605Z,101101.81
2022-08-25T11:10:50.609Z,101100.19
2022-08-25T11:13:26.516Z,101088.63
2022-08-25T11:18:51.062Z,101075.19
2022-08-25T11:21:23.747Z,101089.91
2022-08-25T11:23:59.406Z,101080.22
2022-08-25T11:26:36.934Z,101072.78
2022-08-25T11:29:12.250Z,101084.66
2022-08-25T11:31:43.603Z,101076.47
2022-08-25T11:34:14.415Z,101066.47
2022-08-25T11:36:50.280Z,101066.34
2022-08-25T11:39:34.661Z,101073.56
2022-08-25T11:42:14.704Z,101067.16
2022-08-25T11:44:53.807Z,101061.28
2022-08-25T11:47:41.830Z,101057.31
2022-08-25T11:50:30.454Z,101058.81
2022-08-25T11:53:04.193Z,101050.44
2022-08-25T11:55:52.240Z,101053.63
2022-08-25T11:58:35.106Z,101048.38
2022-08-25T12:01:04.972Z,101035.97
2022-08-25T12:03:53.082Z,101049.44
2022-08-25T12:06:33.070Z,101036.09
2022-08-25T12:09:22.073Z,101037.19
2022-08-25T12:11:54.577Z,101033.84
2022-08-25T12:14:52.514Z,101040.03
2022-08-25T12:17:25.441Z,101042.00
2022-08-25T12:19:59.856Z,101034.84
2022-08-25T12:22:51.283Z,101034.91
2022-08-25T12:25:33.942Z,101028.50
2022-08-25T12:28:11.092Z,101030.84
2022-08-25T12:30:47.059Z,101032.00
2022-08-25T12:33:29.224Z,101030.41
2022-08-25T12:36:00.203Z,101028.13
2022-08-25T12:38:34.983Z,101015.44
2022-08-25T12:41:10.188Z,101016.16
2022-08-25T12:43:42.299Z,101012.06
2022-08-25T12:46:36.561Z,101008.94
2022-08-25T12:49:12.182Z,101014.91
2022-08-25T12:51:51.738Z,101009.41
2022-08-25T12:54:25.092Z,101009.75
2022-08-25T12:56:58.301Z,101003.63
2022-08-25T12:59:35.983Z,100994.56
2022-08-25T13:02:52.207Z,100999.38
2022-08-25T13:05:46.195Z,100998.03
2022-08-25T13:08:38.348Z,100981.78
2022-08-25T13:11:20.383Z,100985.31
2022-08-25T13:13:53.631Z,100977.06
2022-08-25T13:16:29.411Z,100968.75
2022-08-25T13:19:01.534Z,100970.25
2022-08-25T13:21:31.925Z,100969.19
2022-08-25T13:24:06.108Z,100964.41
2022-08-25T13:26:38.128Z,100965.28
2022-08-25T13:29:20.542Z,100968.44
2022-08-25T13:31:57.375Z,100961.84
2022-08-25T13:34:34.402Z,100947.81
2022-08-25T13:37:24.475Z,100957.50
2022-08-25T13:40:07.768Z,100958.06
2022-08-25T13:42:39.220Z,100955.53
2022-08-25T13:45:14.999Z,100950.72
2022-08-25T13:47:45.833Z,100944.88
2022-08-25T13:50:21.174Z,100939.91
2022-08-25T13:52:54.243Z,100937.31
2022-08-25T13:55:27.672Z,100935.88
2022-08-25T13:57:59.043Z,100954.50
2022-08-25T14:00:32.462Z,100946.31
2022-08-25T14:03:03.833Z,100943.56
2022-08-25T14:05:42.650Z,100938.09
2022-08-25T14:08:32.857Z,100942.78
2022-08-25T14:11:14.893Z,100929.69
2022-08-25T14:13:46.206Z,100929.75
2022-08-25T14:16:19.203Z,100933.97
2022-08-25T14:18:52.202Z,100935.63
2022-08-25T14:21:25.319Z,100928.06
2022-08-25T14:23:54.352Z,100922.47
2022-08-25T14:26:22.371Z,100918.66
2022-08-25T14:28:50.852Z,100915.06
2022-08-25T14:31:25.329Z,100917.13
2022-08-25T14:33:58.016Z,100910.22
2022-08-25T14:36:27.313Z,100910.06
2022-08-25T14:38:57.274Z,100905.72
2022-08-25T14:41:26.437Z,100905.50
2022-08-25T14:43:54.709Z,100904.59
2022-08-25T14:46:24.324Z,100891.56
2022-08-25T14:48:57.498Z,100886.03
2022-08-25T14:51:25.836Z,100891.44
2022-08-25T14:53:58.691Z,100882.38
2022-08-25T14:56:27.735Z,100884.28
2022-08-25T14:58:57.288Z,100885.28
2022-08-25T15:01:30.097Z,100882.31
2022-08-25T15:04:04.342Z,100886.91
2022-08-25T15:06:32.726Z,100882.47
2022-08-25T15:09:08.497Z,100878.66
2022-08-25T15:11:36.818Z,100875.34
2022-08-25T15:14:10.976Z,100872.91
2022-08-25T15:16:42.636Z,100865.78
2022-08-25T15:19:14.472Z,100873.34
2022-08-25T15:21:44.383Z,100868.09
2022-08-25T15:24:17.575Z,100864.47
2022-08-25T15:29:26.176Z,100855.16
2022-08-25T15:31:53.991Z,100847.00
2022-08-25T15:34:24.025Z,100842.06
2022-08-25T15:36:52.307Z,100839.28
2022-08-25T15:39:20.156Z,100842.19
2022-08-25T15:41:49.506Z,100854.63
2022-08-25T15:44:17.369Z,100844.72
2022-08-25T15:46:47.126Z,100858.75
2022-08-25T15:49:20.341Z,100854.84
2022-08-25T15:51:54.393Z,100835.66
2022-08-25T15:54:23.607Z,100841.72
2022-08-25T15:56:56.759Z,100844.50
2022-08-25T15:59:25.378Z,100838.94
2022-08-25T16:01:54.091Z,100851.63
2022-08-25T16:04:22.410Z,100844.09
2022-08-25T16:06:52.817Z,100844.09
2022-08-25T16:09:22.953Z,100843.28
2022-08-25T16:11:56.129Z,100829.84
2022-08-25T16:14:24.799Z,100839.78
2022-08-25T16:16:52.801Z,100826.97
2022-08-25T16:19:20.519Z,100833.16
2022-08-25T16:21:48.196Z,100821.00
2022-08-25T16:24:17.314Z,100821.00
2022-08-25T16:26:48.054Z,100818.22
2022-08-25T16:29:16.646Z,100825.56
2022-08-25T16:31:44.453Z,100823.91
2022-08-25T16:34:12.619Z,100819.13
2022-08-25T16:36:40.406Z,100829.75
2022-08-25T16:39:10.031Z,100819.44
2022-08-25T16:41:39.560Z,100819.13
2022-08-25T16:44:11.155Z,100822.53
2022-08-25T16:46:41.801Z,100815.31
2022-08-25T16:49:13.360Z,100811.31
2022-08-25T16:51:43.211Z,100814.94
2022-08-25T16:54:30.335Z,100818.06
2022-08-25T16:56:59.325Z,100818.22
2022-08-25T16:59:27.510Z,100807.22
2022-08-25T17:01:55.627Z,100810.94
2022-08-25T17:04:29.578Z,100805.38
2022-08-25T17:07:01.898Z,100815.38
2022-08-25T17:09:30.756Z,100807.16
2022-08-25T17:12:01.978Z,100814.97
2022-08-25T17:14:30.466Z,100808.59
2022-08-25T17:16:58.463Z,100814.97
2022-08-25T17:19:26.802Z,100812.84
2022-08-25T17:21:55.096Z,100812.53
2022-08-25T17:24:29.198Z,100813.84
2022-08-25T17:27:01.312Z,100818.59
2022-08-25T17:29:29.603Z,100819.91
2022-08-25T17:31:58.370Z,100817.13
2022-08-25T17:34:27.497Z,100816.31
2022-08-25T17:36:56.230Z,100821.56
2022-08-25T17:39:25.939Z,100812.19
2022-08-25T17:41:54.607Z,100810.25
2022-08-25T17:44:23.618Z,100813.03
2022-08-25T17:46:51.855Z,100809.84
2022-08-25T17:49:19.655Z,100817.50
2022-08-25T17:51:47.470Z,100814.81
2022-08-25T17:54:15.475Z,100811.81
2022-08-25T17:56:43.609Z,100816.88
2022-08-25T17:59:11.978Z,100815.84
2022-08-25T18:01:42.072Z,100812.56
2022-08-25T18:04:17.136Z,100824.31
2022-08-25T18:06:46.437Z,100818.22
2022-08-25T18:09:15.007Z,100822.78
2022-08-25T18:11:43.152Z,100815.88
2022-08-25T18:14:11.727Z,100832.34
2022-08-25T18:16:42.223Z,100827.41
2022-08-25T18:19:10.711Z,100826.41
2022-08-25T18:21:52.723Z,100832.56
2022-08-25T18:24:20.737Z,100832.38
2022-08-25T18:26:51.695Z,100829.38
2022-08-25T18:29:20.277Z,100834.41
2022-08-25T18:31:51.852Z,100828.66
2022-08-25T18:34:21.982Z,100829.25
2022-08-25T18:36:49.729Z,100832.47
2022-08-25T18:39:36.397Z,100826.38
2022-08-25T18:42:06.098Z,100826.38
2022-08-25T18:44:34.497Z,100835.31
2022-08-25T18:47:07.667Z,100839.53
2022-08-25T18:49:36.983Z,100838.81
2022-08-25T18:52:05.612Z,100840.78
2022-08-25T18:54:33.359Z,100837.78
2022-08-25T18:57:04.171Z,100841.19
2022-08-25T18:59:35.939Z,100838.72
2022-08-25T19:02:05.270Z,100841.78
2022-08-25T19:04:33.023Z,100836.13
2022-08-25T19:07:01.456Z,100844.94
2022-08-25T19:09:31.552Z,100841.66
2022-08-25T19:12:00.078Z,100843.91
2022-08-25T19:14:27.996Z,100842.25
2022-08-25T19:16:57.801Z,100842.25
2022-08-25T19:19:28.462Z,100843.69
2022-08-25T19:21:58.061Z,100845.44
2022-08-25T19:24:28.169Z,100848.84
2022-08-25T19:26:56.465Z,100841.31
2022-08-25T19:29:24.557Z,100843.66
2022-08-25T19:31:53.113Z,100847.34
2022-08-25T19:34:28.025Z,100847.88
2022-08-25T19:37:02.178Z,100842.31
2022-08-25T19:39:33.354Z,100845.19
2022-08-25T19:42:01.067Z,100848.63
2022-08-25T19:44:32.755Z,100845.84
2022-08-25T19:47:03.201Z,100842.03
2022-08-25T19:49:34.377Z,100845.94
2022-08-25T19:52:10.722Z,100850.13
2022-08-25T19:54:40.515Z,100842.81
2022-08-25T19:57:13.671Z,100845.66
2022-08-25T19:59:56.382Z,100852.50
2022-08-25T20:02:29.514Z,100856.09
2022-08-25T20:04:59.444Z,100859.69
2022-08-25T20:07:31.509Z,100856.63
2022-08-25T20:10:04.457Z,100864.94
2022-08-25T20:12:32.169Z,100868.41
2022-08-25T20:14:59.794Z,100864.28
2022-08-25T20:17:28.601Z,100863.00
2022-08-25T20:19:58.551Z,100863.81
2022-08-25T20:22:27.787Z,100866.06
2022-08-25T20:24:58.619Z,100862.06
2022-08-25T20:27:32.036Z,100859.00
2022-08-25T20:30:02.364Z,100867.03
2022-08-25T20:32:31.380Z,100865.59
2022-08-25T20:34:59.161Z,100862.38
2022-08-25T20:37:27.181Z,100871.75
2022-08-25T20:39:55.044Z,100873.16
2022-08-25T20:42:24.122Z,100869.03
2022-08-25T20:44:53.491Z,100866.31
2022-08-25T20:47:22.469Z,100863.97
2022-08-25T20:49:50.449Z,100864.03
2022-08-25T20:52:19.708Z,100864.13
2022-08-25T20:54:49.606Z,100870.78
2022-08-25T20:57:25.938Z,100871.06
2022-08-25T20:59:55.789Z,100873.84
2022-08-25T21:02:24.075Z,100869.41
2022-08-25T21:04:51.888Z,100874.41
2022-08-25T21:07:20.733Z,100870.59
2022-08-25T21:09:52.575Z,100871.13
2022-08-25T21:12:22.876Z,100869.16
2022-08-25T21:14:51.792Z,100871.13
2022-08-25T21:17:21.687Z,100862.81
2022-08-25T21:19:49.458Z,100871.44
2022-08-25T21:22:17.280Z,100872.84
2022-08-25T21:24:45.703Z,100864.03
2022-08-25T21:27:13.435Z,100867.16
2022-08-25T21:29:44.672Z,100861.03
2022-08-25T21:32:24.361Z,100865.75
2022-08-25T21:34:53.658Z,100859.44
2022-08-25T21:37:21.319Z,100866.66
2022-08-25T21:39:49.005Z,100865.56
2022-08-25T21:42:16.849Z,100862.22
2022-08-25T21:44:44.724Z,100868.69
2022-08-25T21:47:12.320Z,100868.13
2022-08-25T21:49:41.257Z,100868.94
2022-08-25T21:52:09.064Z,100872.25
2022-08-25T21:54:37.621Z,100870.34
2022-08-25T21:57:07.537Z,100863.38
2022-08-25T21:59:37.383Z,100863.38
2022-08-25T22:02:07.399Z,100859.81
2022-08-25T22:04:36.150Z,100863.69
2022-08-25T22:07:05.592Z,100860.91
2022-08-25T22:09:33.648Z,100858.16
2022-08-25T22:12:02.260Z,100860.09
2022-08-25T22:14:29.874Z,100860.09
2022-08-25T22:16:57.689Z,100858.16
2022-08-25T22:19:25.919Z,100853.72
2022-08-25T22:21:54.741Z,100855.13
2022-08-25T22:24:28.017Z,100849.31
2022-08-25T22:26:56.413Z,100850.16
2022-08-25T22:29:25.757Z,100852.94
2022-08-25T22:31:54.063Z,100852.38
2022-08-25T22:34:30.616Z,100848.53
2022-08-25T22:37:00.165Z,100839.97
2022-08-25T22:39:29.964Z,100838.34
2022-08-25T22:41:58.123Z,100838.09
2022-08-25T22:44:26.426Z,100832.31
2022-08-25T22:46:54.390Z,100822.13
2022-08-25T22:49:22.077Z,100827.22
2022-08-25T22:51:49.897Z,100830.28
2022-08-25T22:54:18.706Z,100831.94
2022-08-25T22:56:47.693Z,100825.94
2022-08-25T22:59:15.496Z,100828.94
